sensor_id;sensor_type;location;lat;lon;timestamp;P1;durP1;ratioP1;P2;durP2;ratioP2
20828;SDS011;10575;50.124;8.582;2023-05-07T00:00:12;2.55;;;1.75;;
20828;SDS011;10575;50.124;8.582;2023-05-07T00:02:40;2.90;;;2.08;;
20828;SDS011;10575;50.124;8.582;2023-05-07T00:05:06;3.33;;;1.90;;
20828;SDS011;10575;50.124;8.582;2023-05-07T00:07:32;2.45;;;1.85;;
20828;SDS011;10575;50.124;8.582;2023-05-07T00:09:58;3.15;;;2.10;;
20828;SDS011;10575;50.124;8.582;2023-05-07T00:12:23;3.25;;;2.10;;
20828;SDS011;10575;50.124;8.582;2023-05-07T00:14:48;4.20;;;1.85;;
20828;SDS011;10575;50.124;8.582;2023-05-07T00:17:14;4.70;;;1.80;;
20828;SDS011;10575;50.124;8.582;2023-05-07T00:19:40;2.63;;;2.15;;
20828;SDS011;10575;50.124;8.582;2023-05-07T00:22:05;3.00;;;2.38;;
20828;SDS011;10575;50.124;8.582;2023-05-07T00:24:32;2.00;;;1.77;;
20828;SDS011;10575;50.124;8.582;2023-05-07T00:26:57;2.83;;;2.05;;
20828;SDS011;10575;50.124;8.582;2023-05-07T00:29:23;2.90;;;2.40;;
20828;SDS011;10575;50.124;8.582;2023-05-07T00:31:49;3.50;;;2.08;;
20828;SDS011;10575;50.124;8.582;2023-05-07T00:34:15;4.68;;;1.88;;
20828;SDS011;10575;50.124;8.582;2023-05-07T00:36:40;4.38;;;2.22;;
20828;SDS011;10575;50.124;8.582;2023-05-07T00:39:06;2.22;;;1.77;;
20828;SDS011;10575;50.124;8.582;2023-05-07T00:41:31;3.28;;;2.03;;
20828;SDS011;10575;50.124;8.582;2023-05-07T00:43:57;2.83;;;2.13;;
20828;SDS011;10575;50.124;8.582;2023-05-07T00:46:23;5.65;;;2.30;;
20828;SDS011;10575;50.124;8.582;2023-05-07T00:48:49;3.03;;;2.13;;
20828;SDS011;10575;50.124;8.582;2023-05-07T00:51:15;2.22;;;2.00;;
20828;SDS011;10575;50.124;8.582;2023-05-07T00:53:42;3.13;;;2.83;;
20828;SDS011;10575;50.124;8.582;2023-05-07T00:56:08;2.72;;;1.95;;
20828;SDS011;10575;50.124;8.582;2023-05-07T00:58:36;2.70;;;2.15;;
20828;SDS011;10575;50.124;8.582;2023-05-07T01:01:02;2.50;;;1.90;;
20828;SDS011;10575;50.124;8.582;2023-05-07T01:03:28;2.60;;;2.03;;
20828;SDS011;10575;50.124;8.582;2023-05-07T01:05:53;3.92;;;2.00;;
20828;SDS011;10575;50.124;8.582;2023-05-07T01:08:22;2.08;;;1.77;;
20828;SDS011;10575;50.124;8.582;2023-05-07T01:10:49;2.90;;;2.13;;
20828;SDS011;10575;50.124;8.582;2023-05-07T01:13:16;2.60;;;1.65;;
20828;SDS011;10575;50.124;8.582;2023-05-07T01:15:43;2.78;;;1.95;;
20828;SDS011;10575;50.124;8.582;2023-05-07T01:18:08;3.13;;;2.03;;
20828;SDS011;10575;50.124;8.582;2023-05-07T01:20:34;2.80;;;2.33;;
20828;SDS011;10575;50.124;8.582;2023-05-07T01:23:00;2.40;;;1.92;;
20828;SDS011;10575;50.124;8.582;2023-05-07T01:25:25;1.92;;;1.80;;
20828;SDS011;10575;50.124;8.582;2023-05-07T01:27:51;3.72;;;2.30;;
20828;SDS011;10575;50.124;8.582;2023-05-07T01:30:17;2.10;;;1.90;;
20828;SDS011;10575;50.124;8.582;2023-05-07T01:32:52;5.15;;;2.22;;
20828;SDS011;10575;50.124;8.582;2023-05-07T01:35:24;2.53;;;1.75;;
20828;SDS011;10575;50.124;8.582;2023-05-07T01:37:53;3.00;;;2.10;;
20828;SDS011;10575;50.124;8.582;2023-05-07T01:40:19;2.47;;;1.70;;
20828;SDS011;10575;50.124;8.582;2023-05-07T01:42:45;3.67;;;2.08;;
20828;SDS011;10575;50.124;8.582;2023-05-07T01:45:13;2.70;;;1.92;;
20828;SDS011;10575;50.124;8.582;2023-05-07T01:47:38;2.47;;;2.03;;
20828;SDS011;10575;50.124;8.582;2023-05-07T01:50:07;2.83;;;1.75;;
20828;SDS011;10575;50.124;8.582;2023-05-07T01:52:34;3.35;;;2.17;;
20828;SDS011;10575;50.124;8.582;2023-05-07T01:55:02;4.47;;;2.70;;
20828;SDS011;10575;50.124;8.582;2023-05-07T01:57:27;3.78;;;2.10;;
20828;SDS011;10575;50.124;8.582;2023-05-07T01:59:53;2.40;;;1.85;;
20828;SDS011;10575;50.124;8.582;2023-05-07T02:02:18;2.63;;;1.90;;
20828;SDS011;10575;50.124;8.582;2023-05-07T02:04:44;3.40;;;1.95;;
20828;SDS011;10575;50.124;8.582;2023-05-07T02:07:10;2.42;;;2.00;;
20828;SDS011;10575;50.124;8.582;2023-05-07T02:09:35;3.13;;;2.03;;
20828;SDS011;10575;50.124;8.582;2023-05-07T02:12:01;5.05;;;1.80;;
20828;SDS011;10575;50.124;8.582;2023-05-07T02:14:26;2.67;;;2.17;;
20828;SDS011;10575;50.124;8.582;2023-05-07T02:16:52;2.55;;;2.03;;
20828;SDS011;10575;50.124;8.582;2023-05-07T02:19:17;3.22;;;2.08;;
20828;SDS011;10575;50.124;8.582;2023-05-07T02:21:45;3.03;;;2.13;;
20828;SDS011;10575;50.124;8.582;2023-05-07T02:24:11;4.20;;;2.25;;
20828;SDS011;10575;50.124;8.582;2023-05-07T02:26:37;3.97;;;2.30;;
20828;SDS011;10575;50.124;8.582;2023-05-07T02:29:02;5.15;;;2.50;;
20828;SDS011;10575;50.124;8.582;2023-05-07T02:31:28;3.35;;;2.40;;
20828;SDS011;10575;50.124;8.582;2023-05-07T02:33:53;4.30;;;2.45;;
20828;SDS011;10575;50.124;8.582;2023-05-07T02:36:19;4.05;;;2.17;;
20828;SDS011;10575;50.124;8.582;2023-05-07T02:38:44;4.72;;;2.33;;
20828;SDS011;10575;50.124;8.582;2023-05-07T02:41:10;6.55;;;2.25;;
20828;SDS011;10575;50.124;8.582;2023-05-07T02:43:36;2.35;;;2.10;;
20828;SDS011;10575;50.124;8.582;2023-05-07T02:48:30;4.05;;;2.30;;
20828;SDS011;10575;50.124;8.582;2023-05-07T02:50:56;3.65;;;2.63;;
20828;SDS011;10575;50.124;8.582;2023-05-07T02:53:22;2.60;;;2.38;;
20828;SDS011;10575;50.124;8.582;2023-05-07T02:55:47;2.35;;;2.13;;
20828;SDS011;10575;50.124;8.582;2023-05-07T02:58:13;2.67;;;2.13;;
20828;SDS011;10575;50.124;8.582;2023-05-07T03:00:38;3.17;;;2.30;;
20828;SDS011;10575;50.124;8.582;2023-05-07T03:03:04;3.17;;;2.30;;
20828;SDS011;10575;50.124;8.582;2023-05-07T03:05:29;3.13;;;2.40;;
20828;SDS011;10575;50.124;8.582;2023-05-07T03:07:55;4.75;;;2.45;;
20828;SDS011;10575;50.124;8.582;2023-05-07T03:10:20;4.38;;;2.63;;
20828;SDS011;10575;50.124;8.582;2023-05-07T03:12:46;8.00;;;2.72;;
20828;SDS011;10575;50.124;8.582;2023-05-07T03:15:11;2.55;;;2.35;;
20828;SDS011;10575;50.124;8.582;2023-05-07T03:17:37;4.63;;;2.70;;
20828;SDS011;10575;50.124;8.582;2023-05-07T03:20:03;3.55;;;2.53;;
20828;SDS011;10575;50.124;8.582;2023-05-07T03:22:29;4.70;;;2.85;;
20828;SDS011;10575;50.124;8.582;2023-05-07T03:24:55;4.10;;;2.60;;
20828;SDS011;10575;50.124;8.582;2023-05-07T03:27:20;3.85;;;2.38;;
20828;SDS011;10575;50.124;8.582;2023-05-07T03:29:46;4.40;;;2.28;;
20828;SDS011;10575;50.124;8.582;2023-05-07T03:32:11;4.90;;;2.88;;
20828;SDS011;10575;50.124;8.582;2023-05-07T03:34:37;4.03;;;2.40;;
20828;SDS011;10575;50.124;8.582;2023-05-07T03:37:02;2.50;;;2.15;;
20828;SDS011;10575;50.124;8.582;2023-05-07T03:39:28;2.97;;;2.60;;
20828;SDS011;10575;50.124;8.582;2023-05-07T03:41:53;2.40;;;2.20;;
20828;SDS011;10575;50.124;8.582;2023-05-07T03:44:19;3.95;;;2.22;;
20828;SDS011;10575;50.124;8.582;2023-05-07T03:46:44;3.75;;;2.50;;
20828;SDS011;10575;50.124;8.582;2023-05-07T03:49:10;3.03;;;2.42;;
20828;SDS011;10575;50.124;8.582;2023-05-07T03:51:36;5.25;;;2.60;;
20828;SDS011;10575;50.124;8.582;2023-05-07T03:54:01;3.65;;;2.40;;
20828;SDS011;10575;50.124;8.582;2023-05-07T03:56:27;5.22;;;2.35;;
20828;SDS011;10575;50.124;8.582;2023-05-07T03:58:53;3.55;;;2.40;;
20828;SDS011;10575;50.124;8.582;2023-05-07T04:01:18;4.68;;;2.33;;
20828;SDS011;10575;50.124;8.582;2023-05-07T04:03:44;3.55;;;2.47;;
20828;SDS011;10575;50.124;8.582;2023-05-07T04:06:09;4.80;;;2.50;;
20828;SDS011;10575;50.124;8.582;2023-05-07T04:08:35;4.28;;;2.67;;
20828;SDS011;10575;50.124;8.582;2023-05-07T04:11:01;3.30;;;2.13;;
20828;SDS011;10575;50.124;8.582;2023-05-07T04:13:26;3.25;;;2.50;;
20828;SDS011;10575;50.124;8.582;2023-05-07T04:15:53;4.47;;;2.50;;
20828;SDS011;10575;50.124;8.582;2023-05-07T04:18:19;3.53;;;2.05;;
20828;SDS011;10575;50.124;8.582;2023-05-07T04:20:46;3.85;;;2.38;;
20828;SDS011;10575;50.124;8.582;2023-05-07T04:23:12;2.90;;;2.60;;
20828;SDS011;10575;50.124;8.582;2023-05-07T04:25:38;4.53;;;2.80;;
20828;SDS011;10575;50.124;8.582;2023-05-07T04:28:04;3.60;;;2.40;;
20828;SDS011;10575;50.124;8.582;2023-05-07T04:30:29;2.78;;;2.15;;
20828;SDS011;10575;50.124;8.582;2023-05-07T04:32:55;3.78;;;2.38;;
20828;SDS011;10575;50.124;8.582;2023-05-07T04:35:21;2.70;;;2.30;;
20828;SDS011;10575;50.124;8.582;2023-05-07T04:37:46;3.17;;;2.47;;
20828;SDS011;10575;50.124;8.582;2023-05-07T04:40:12;2.92;;;2.63;;
20828;SDS011;10575;50.124;8.582;2023-05-07T04:42:38;3.28;;;2.50;;
20828;SDS011;10575;50.124;8.582;2023-05-07T04:45:03;4.68;;;2.28;;
20828;SDS011;10575;50.124;8.582;2023-05-07T04:47:29;2.58;;;2.28;;
20828;SDS011;10575;50.124;8.582;2023-05-07T04:49:55;5.50;;;2.25;;
20828;SDS011;10575;50.124;8.582;2023-05-07T04:52:22;4.00;;;2.47;;
20828;SDS011;10575;50.124;8.582;2023-05-07T04:54:47;2.55;;;2.13;;
20828;SDS011;10575;50.124;8.582;2023-05-07T04:57:13;2.90;;;2.47;;
20828;SDS011;10575;50.124;8.582;2023-05-07T04:59:38;3.70;;;2.25;;
20828;SDS011;10575;50.124;8.582;2023-05-07T05:02:04;4.65;;;2.58;;
20828;SDS011;10575;50.124;8.582;2023-05-07T05:04:29;5.13;;;2.88;;
20828;SDS011;10575;50.124;8.582;2023-05-07T05:06:55;3.70;;;2.67;;
20828;SDS011;10575;50.124;8.582;2023-05-07T05:09:21;2.90;;;2.15;;
20828;SDS011;10575;50.124;8.582;2023-05-07T05:11:46;4.50;;;2.70;;
20828;SDS011;10575;50.124;8.582;2023-05-07T05:14:12;3.33;;;2.45;;
20828;SDS011;10575;50.124;8.582;2023-05-07T05:16:37;4.85;;;2.50;;
20828;SDS011;10575;50.124;8.582;2023-05-07T05:19:03;3.65;;;2.50;;
20828;SDS011;10575;50.124;8.582;2023-05-07T05:21:28;3.58;;;2.45;;
20828;SDS011;10575;50.124;8.582;2023-05-07T05:23:54;3.25;;;2.08;;
20828;SDS011;10575;50.124;8.582;2023-05-07T05:26:19;3.33;;;2.90;;
20828;SDS011;10575;50.124;8.582;2023-05-07T05:28:46;2.58;;;2.38;;
20828;SDS011;10575;50.124;8.582;2023-05-07T05:31:11;3.20;;;2.58;;
20828;SDS011;10575;50.124;8.582;2023-05-07T05:33:37;5.05;;;2.60;;
20828;SDS011;10575;50.124;8.582;2023-05-07T05:36:03;4.38;;;2.40;;
20828;SDS011;10575;50.124;8.582;2023-05-07T05:38:29;4.90;;;2.70;;
20828;SDS011;10575;50.124;8.582;2023-05-07T05:40:54;4.25;;;2.30;;
20828;SDS011;10575;50.124;8.582;2023-05-07T05:43:20;5.03;;;2.45;;
20828;SDS011;10575;50.124;8.582;2023-05-07T05:45:45;3.88;;;2.40;;
20828;SDS011;10575;50.124;8.582;2023-05-07T05:48:11;4.25;;;2.65;;
20828;SDS011;10575;50.124;8.582;2023-05-07T05:50:37;3.45;;;2.70;;
20828;SDS011;10575;50.124;8.582;2023-05-07T05:53:02;3.17;;;2.50;;
20828;SDS011;10575;50.124;8.582;2023-05-07T05:55:28;3.92;;;2.53;;
20828;SDS011;10575;50.124;8.582;2023-05-07T05:57:53;3.25;;;2.22;;
20828;SDS011;10575;50.124;8.582;2023-05-07T06:00:19;3.67;;;2.63;;
20828;SDS011;10575;50.124;8.582;2023-05-07T06:02:47;4.00;;;2.60;;
20828;SDS011;10575;50.124;8.582;2023-05-07T06:05:13;4.07;;;2.50;;
20828;SDS011;10575;50.124;8.582;2023-05-07T06:07:38;4.63;;;2.35;;
20828;SDS011;10575;50.124;8.582;2023-05-07T06:10:04;2.88;;;2.58;;
20828;SDS011;10575;50.124;8.582;2023-05-07T06:12:30;4.57;;;2.78;;
20828;SDS011;10575;50.124;8.582;2023-05-07T06:14:56;4.60;;;2.63;;
20828;SDS011;10575;50.124;8.582;2023-05-07T06:17:21;4.50;;;2.70;;
20828;SDS011;10575;50.124;8.582;2023-05-07T06:19:47;3.00;;;2.60;;
20828;SDS011;10575;50.124;8.582;2023-05-07T06:22:12;3.47;;;2.50;;
20828;SDS011;10575;50.124;8.582;2023-05-07T06:24:38;4.07;;;2.40;;
20828;SDS011;10575;50.124;8.582;2023-05-07T06:27:03;3.22;;;2.90;;
20828;SDS011;10575;50.124;8.582;2023-05-07T06:29:29;2.95;;;2.60;;
20828;SDS011;10575;50.124;8.582;2023-05-07T06:32:05;4.05;;;3.33;;
20828;SDS011;10575;50.124;8.582;2023-05-07T06:34:34;2.83;;;2.50;;
20828;SDS011;10575;50.124;8.582;2023-05-07T06:37:00;2.95;;;2.50;;
20828;SDS011;10575;50.124;8.582;2023-05-07T06:39:26;4.05;;;2.70;;
20828;SDS011;10575;50.124;8.582;2023-05-07T06:41:51;2.97;;;2.30;;
20828;SDS011;10575;50.124;8.582;2023-05-07T06:44:18;3.00;;;2.72;;
20828;SDS011;10575;50.124;8.582;2023-05-07T06:46:43;3.30;;;3.00;;
20828;SDS011;10575;50.124;8.582;2023-05-07T06:49:10;3.70;;;2.92;;
20828;SDS011;10575;50.124;8.582;2023-05-07T06:51:35;3.03;;;2.72;;
20828;SDS011;10575;50.124;8.582;2023-05-07T06:54:01;3.88;;;3.08;;
20828;SDS011;10575;50.124;8.582;2023-05-07T06:56:27;3.35;;;2.90;;
20828;SDS011;10575;50.124;8.582;2023-05-07T06:58:52;3.00;;;2.70;;
20828;SDS011;10575;50.124;8.582;2023-05-07T07:01:18;6.82;;;2.90;;
20828;SDS011;10575;50.124;8.582;2023-05-07T07:03:43;3.97;;;2.80;;
20828;SDS011;10575;50.124;8.582;2023-05-07T07:06:09;2.83;;;2.50;;
20828;SDS011;10575;50.124;8.582;2023-05-07T07:08:34;3.42;;;3.00;;
20828;SDS011;10575;50.124;8.582;2023-05-07T07:11:00;4.95;;;2.78;;
20828;SDS011;10575;50.124;8.582;2023-05-07T07:13:25;4.43;;;2.80;;
20828;SDS011;10575;50.124;8.582;2023-05-07T07:15:51;2.97;;;2.65;;
20828;SDS011;10575;50.124;8.582;2023-05-07T07:18:18;3.67;;;2.70;;
20828;SDS011;10575;50.124;8.582;2023-05-07T07:20:43;7.50;;;3.25;;
20828;SDS011;10575;50.124;8.582;2023-05-07T07:23:09;3.90;;;3.03;;
20828;SDS011;10575;50.124;8.582;2023-05-07T07:25:35;4.15;;;3.10;;
20828;SDS011;10575;50.124;8.582;2023-05-07T07:28:00;4.20;;;2.85;;
20828;SDS011;10575;50.124;8.582;2023-05-07T07:30:26;5.57;;;3.00;;
20828;SDS011;10575;50.124;8.582;2023-05-07T07:32:51;3.85;;;2.70;;
20828;SDS011;10575;50.124;8.582;2023-05-07T07:35:17;4.75;;;3.08;;
20828;SDS011;10575;50.124;8.582;2023-05-07T07:37:43;3.78;;;3.03;;
20828;SDS011;10575;50.124;8.582;2023-05-07T07:40:08;3.30;;;3.00;;
20828;SDS011;10575;50.124;8.582;2023-05-07T07:42:36;3.78;;;2.78;;
20828;SDS011;10575;50.124;8.582;2023-05-07T07:45:01;3.28;;;2.90;;
20828;SDS011;10575;50.124;8.582;2023-05-07T07:47:28;4.50;;;3.30;;
20828;SDS011;10575;50.124;8.582;2023-05-07T07:49:53;5.07;;;3.45;;
20828;SDS011;10575;50.124;8.582;2023-05-07T07:52:19;6.22;;;3.85;;
20828;SDS011;10575;50.124;8.582;2023-05-07T07:54:44;4.15;;;3.53;;
20828;SDS011;10575;50.124;8.582;2023-05-07T07:57:10;3.80;;;3.40;;
20828;SDS011;10575;50.124;8.582;2023-05-07T07:59:36;5.80;;;3.35;;
20828;SDS011;10575;50.124;8.582;2023-05-07T08:02:01;3.60;;;3.30;;
20828;SDS011;10575;50.124;8.582;2023-05-07T08:04:27;6.03;;;3.83;;
20828;SDS011;10575;50.124;8.582;2023-05-07T08:06:52;4.43;;;3.25;;
20828;SDS011;10575;50.124;8.582;2023-05-07T08:09:19;3.55;;;3.25;;
20828;SDS011;10575;50.124;8.582;2023-05-07T08:11:46;4.85;;;3.90;;
20828;SDS011;10575;50.124;8.582;2023-05-07T08:14:12;4.53;;;3.60;;
20828;SDS011;10575;50.124;8.582;2023-05-07T08:16:37;4.95;;;3.60;;
20828;SDS011;10575;50.124;8.582;2023-05-07T08:19:03;4.53;;;3.00;;
20828;SDS011;10575;50.124;8.582;2023-05-07T08:21:28;5.20;;;3.50;;
20828;SDS011;10575;50.124;8.582;2023-05-07T08:23:56;5.53;;;3.42;;
20828;SDS011;10575;50.124;8.582;2023-05-07T08:26:24;3.58;;;3.20;;
20828;SDS011;10575;50.124;8.582;2023-05-07T08:28:51;4.35;;;3.83;;
20828;SDS011;10575;50.124;8.582;2023-05-07T08:31:16;4.03;;;3.25;;
20828;SDS011;10575;50.124;8.582;2023-05-07T08:33:42;4.85;;;3.70;;
20828;SDS011;10575;50.124;8.582;2023-05-07T08:36:08;4.75;;;3.88;;
20828;SDS011;10575;50.124;8.582;2023-05-07T08:38:33;4.00;;;3.60;;
20828;SDS011;10575;50.124;8.582;2023-05-07T08:40:59;5.10;;;3.55;;
20828;SDS011;10575;50.124;8.582;2023-05-07T08:43:26;5.72;;;3.75;;
20828;SDS011;10575;50.124;8.582;2023-05-07T08:45:53;4.38;;;3.97;;
20828;SDS011;10575;50.124;8.582;2023-05-07T08:48:22;4.95;;;4.20;;
20828;SDS011;10575;50.124;8.582;2023-05-07T08:50:51;4.00;;;3.60;;
20828;SDS011;10575;50.124;8.582;2023-05-07T08:53:18;5.82;;;4.03;;
20828;SDS011;10575;50.124;8.582;2023-05-07T08:55:46;4.53;;;4.13;;
20828;SDS011;10575;50.124;8.582;2023-05-07T08:58:13;4.05;;;3.65;;
20828;SDS011;10575;50.124;8.582;2023-05-07T09:00:39;8.05;;;4.22;;
20828;SDS011;10575;50.124;8.582;2023-05-07T09:03:06;5.05;;;4.10;;
20828;SDS011;10575;50.124;8.582;2023-05-07T09:05:32;5.93;;;4.25;;
20828;SDS011;10575;50.124;8.582;2023-05-07T09:08:04;4.65;;;4.15;;
20828;SDS011;10575;50.124;8.582;2023-05-07T09:10:32;7.10;;;4.43;;
20828;SDS011;10575;50.124;8.582;2023-05-07T09:12:58;4.70;;;4.07;;
20828;SDS011;10575;50.124;8.582;2023-05-07T09:15:24;5.35;;;3.83;;
20828;SDS011;10575;50.124;8.582;2023-05-07T09:17:50;5.90;;;4.28;;
20828;SDS011;10575;50.124;8.582;2023-05-07T09:20:16;5.40;;;4.32;;
20828;SDS011;10575;50.124;8.582;2023-05-07T09:22:41;5.53;;;4.10;;
20828;SDS011;10575;50.124;8.582;2023-05-07T09:25:09;5.55;;;4.68;;
20828;SDS011;10575;50.124;8.582;2023-05-07T09:27:35;4.28;;;3.88;;
20828;SDS011;10575;50.124;8.582;2023-05-07T09:30:04;4.75;;;4.30;;
20828;SDS011;10575;50.124;8.582;2023-05-07T09:32:34;4.82;;;4.40;;
20828;SDS011;10575;50.124;8.582;2023-05-07T09:35:02;6.68;;;4.18;;
20828;SDS011;10575;50.124;8.582;2023-05-07T09:37:28;8.30;;;4.53;;
20828;SDS011;10575;50.124;8.582;2023-05-07T09:39:56;6.90;;;4.05;;
20828;SDS011;10575;50.124;8.582;2023-05-07T09:42:24;6.10;;;4.00;;
20828;SDS011;10575;50.124;8.582;2023-05-07T09:44:51;6.15;;;3.70;;
20828;SDS011;10575;50.124;8.582;2023-05-07T09:47:20;4.28;;;3.70;;
20828;SDS011;10575;50.124;8.582;2023-05-07T09:49:48;4.47;;;4.07;;
20828;SDS011;10575;50.124;8.582;2023-05-07T09:52:17;5.30;;;4.57;;
20828;SDS011;10575;50.124;8.582;2023-05-07T09:54:43;6.57;;;4.35;;
20828;SDS011;10575;50.124;8.582;2023-05-07T09:57:12;5.57;;;4.65;;
20828;SDS011;10575;50.124;8.582;2023-05-07T09:59:38;5.35;;;4.00;;
20828;SDS011;10575;50.124;8.582;2023-05-07T10:02:08;5.03;;;4.53;;
20828;SDS011;10575;50.124;8.582;2023-05-07T10:04:35;6.03;;;4.60;;
20828;SDS011;10575;50.124;8.582;2023-05-07T10:07:01;7.38;;;4.00;;
20828;SDS011;10575;50.124;8.582;2023-05-07T10:09:29;5.55;;;4.43;;
20828;SDS011;10575;50.124;8.582;2023-05-07T10:11:55;5.50;;;4.10;;
20828;SDS011;10575;50.124;8.582;2023-05-07T10:14:22;5.32;;;4.75;;
20828;SDS011;10575;50.124;8.582;2023-05-07T10:16:48;5.15;;;4.63;;
20828;SDS011;10575;50.124;8.582;2023-05-07T10:19:14;6.22;;;4.97;;
20828;SDS011;10575;50.124;8.582;2023-05-07T10:21:43;6.22;;;4.90;;
20828;SDS011;10575;50.124;8.582;2023-05-07T10:24:19;4.78;;;4.30;;
20828;SDS011;10575;50.124;8.582;2023-05-07T10:26:48;4.65;;;4.25;;
20828;SDS011;10575;50.124;8.582;2023-05-07T10:29:18;5.32;;;4.50;;
20828;SDS011;10575;50.124;8.582;2023-05-07T10:34:58;5.95;;;4.65;;
20828;SDS011;10575;50.124;8.582;2023-05-07T10:37:29;5.53;;;4.32;;
20828;SDS011;10575;50.124;8.582;2023-05-07T10:39:57;4.75;;;4.20;;
20828;SDS011;10575;50.124;8.582;2023-05-07T10:42:22;6.05;;;4.50;;
20828;SDS011;10575;50.124;8.582;2023-05-07T10:44:48;4.80;;;4.30;;
20828;SDS011;10575;50.124;8.582;2023-05-07T10:47:14;6.38;;;4.68;;
20828;SDS011;10575;50.124;8.582;2023-05-07T10:52:15;5.60;;;4.40;;
20828;SDS011;10575;50.124;8.582;2023-05-07T10:55:33;6.18;;;4.78;;
20828;SDS011;10575;50.124;8.582;2023-05-07T10:57:42;5.82;;;4.70;;
20828;SDS011;10575;50.124;8.582;2023-05-07T11:05:29;6.78;;;4.82;;
20828;SDS011;10575;50.124;8.582;2023-05-07T11:07:56;6.70;;;4.18;;
20828;SDS011;10575;50.124;8.582;2023-05-07T11:10:23;5.88;;;4.78;;
20828;SDS011;10575;50.124;8.582;2023-05-07T11:13:08;6.47;;;4.65;;
20828;SDS011;10575;50.124;8.582;2023-05-07T11:15:38;5.05;;;4.63;;
20828;SDS011;10575;50.124;8.582;2023-05-07T11:18:04;4.93;;;4.28;;
20828;SDS011;10575;50.124;8.582;2023-05-07T11:26:04;4.50;;;4.10;;
20828;SDS011;10575;50.124;8.582;2023-05-07T11:28:31;6.03;;;4.32;;
20828;SDS011;10575;50.124;8.582;2023-05-07T11:31:02;5.63;;;4.65;;
20828;SDS011;10575;50.124;8.582;2023-05-07T11:33:28;4.45;;;4.05;;
20828;SDS011;10575;50.124;8.582;2023-05-07T11:35:55;7.28;;;4.65;;
20828;SDS011;10575;50.124;8.582;2023-05-07T11:38:21;5.07;;;4.57;;
20828;SDS011;10575;50.124;8.582;2023-05-07T11:40:58;6.13;;;4.25;;
20828;SDS011;10575;50.124;8.582;2023-05-07T11:43:27;5.00;;;4.50;;
20828;SDS011;10575;50.124;8.582;2023-05-07T11:45:53;4.75;;;4.32;;
20828;SDS011;10575;50.124;8.582;2023-05-07T11:48:19;5.07;;;4.20;;
20828;SDS011;10575;50.124;8.582;2023-05-07T11:50:59;5.78;;;3.90;;
20828;SDS011;10575;50.124;8.582;2023-05-07T11:53:27;4.15;;;3.67;;
20828;SDS011;10575;50.124;8.582;2023-05-07T11:55:55;4.60;;;4.20;;
20828;SDS011;10575;50.124;8.582;2023-05-07T11:58:21;5.28;;;4.28;;
20828;SDS011;10575;50.124;8.582;2023-05-07T12:00:49;7.25;;;4.35;;
20828;SDS011;10575;50.124;8.582;2023-05-07T12:03:15;5.45;;;4.20;;
20828;SDS011;10575;50.124;8.582;2023-05-07T12:05:40;5.95;;;3.78;;
20828;SDS011;10575;50.124;8.582;2023-05-07T12:08:07;7.57;;;4.65;;
20828;SDS011;10575;50.124;8.582;2023-05-07T12:10:33;4.30;;;3.90;;
20828;SDS011;10575;50.124;8.582;2023-05-07T12:12:58;5.07;;;3.35;;
20828;SDS011;10575;50.124;8.582;2023-05-07T12:15:24;3.95;;;3.58;;
20828;SDS011;10575;50.124;8.582;2023-05-07T12:17:49;5.53;;;3.55;;
20828;SDS011;10575;50.124;8.582;2023-05-07T12:20:15;4.18;;;3.53;;
20828;SDS011;10575;50.124;8.582;2023-05-07T12:22:41;3.33;;;3.03;;
20828;SDS011;10575;50.124;8.582;2023-05-07T12:25:08;4.60;;;3.33;;
20828;SDS011;10575;50.124;8.582;2023-05-07T12:27:36;3.90;;;3.50;;
20828;SDS011;10575;50.124;8.582;2023-05-07T12:30:04;4.13;;;3.50;;
20828;SDS011;10575;50.124;8.582;2023-05-07T12:32:29;3.58;;;3.28;;
20828;SDS011;10575;50.124;8.582;2023-05-07T12:34:55;2.92;;;2.60;;
20828;SDS011;10575;50.124;8.582;2023-05-07T12:37:24;2.53;;;2.33;;
20828;SDS011;10575;50.124;8.582;2023-05-07T12:40:03;3.30;;;2.72;;
20828;SDS011;10575;50.124;8.582;2023-05-07T12:42:33;3.47;;;2.88;;
20828;SDS011;10575;50.124;8.582;2023-05-07T12:45:15;2.75;;;2.47;;
20828;SDS011;10575;50.124;8.582;2023-05-07T12:47:44;4.15;;;2.25;;
20828;SDS011;10575;50.124;8.582;2023-05-07T12:50:10;3.53;;;2.08;;
20828;SDS011;10575;50.124;8.582;2023-05-07T12:52:36;2.50;;;2.20;;
20828;SDS011;10575;50.124;8.582;2023-05-07T12:55:05;3.15;;;2.85;;
20828;SDS011;10575;50.124;8.582;2023-05-07T12:57:42;4.63;;;3.45;;
20828;SDS011;10575;50.124;8.582;2023-05-07T13:00:10;3.92;;;3.42;;
20828;SDS011;10575;50.124;8.582;2023-05-07T13:02:40;3.25;;;2.75;;
20828;SDS011;10575;50.124;8.582;2023-05-07T13:05:06;3.10;;;2.00;;
20828;SDS011;10575;50.124;8.582;2023-05-07T13:07:33;3.58;;;2.17;;
20828;SDS011;10575;50.124;8.582;2023-05-07T13:09:59;2.38;;;1.90;;
20828;SDS011;10575;50.124;8.582;2023-05-07T13:12:24;2.20;;;2.00;;
20828;SDS011;10575;50.124;8.582;2023-05-07T13:14:50;2.53;;;2.20;;
20828;SDS011;10575;50.124;8.582;2023-05-07T13:17:15;2.38;;;2.17;;
20828;SDS011;10575;50.124;8.582;2023-05-07T13:19:41;7.88;;;2.85;;
20828;SDS011;10575;50.124;8.582;2023-05-07T13:22:06;7.05;;;3.28;;
20828;SDS011;10575;50.124;8.582;2023-05-07T13:24:32;4.95;;;3.42;;
20828;SDS011;10575;50.124;8.582;2023-05-07T13:26:57;4.13;;;3.72;;
20828;SDS011;10575;50.124;8.582;2023-05-07T13:29:23;4.90;;;3.90;;
20828;SDS011;10575;50.124;8.582;2023-05-07T13:31:56;6.75;;;3.78;;
20828;SDS011;10575;50.124;8.582;2023-05-07T13:34:22;5.97;;;3.83;;
20828;SDS011;10575;50.124;8.582;2023-05-07T13:36:48;4.85;;;3.85;;
20828;SDS011;10575;50.124;8.582;2023-05-07T13:39:13;4.40;;;3.58;;
20828;SDS011;10575;50.124;8.582;2023-05-07T13:41:39;5.57;;;4.00;;
20828;SDS011;10575;50.124;8.582;2023-05-07T13:44:04;7.30;;;3.85;;
20828;SDS011;10575;50.124;8.582;2023-05-07T13:46:30;3.60;;;3.30;;
20828;SDS011;10575;50.124;8.582;2023-05-07T13:48:56;4.03;;;3.55;;
20828;SDS011;10575;50.124;8.582;2023-05-07T13:51:21;3.40;;;3.10;;
20828;SDS011;10575;50.124;8.582;2023-05-07T13:53:47;3.38;;;3.08;;
20828;SDS011;10575;50.124;8.582;2023-05-07T13:56:12;4.03;;;3.40;;
20828;SDS011;10575;50.124;8.582;2023-05-07T13:58:39;5.40;;;3.90;;
20828;SDS011;10575;50.124;8.582;2023-05-07T14:01:05;4.20;;;3.28;;
20828;SDS011;10575;50.124;8.582;2023-05-07T14:03:30;4.05;;;2.90;;
20828;SDS011;10575;50.124;8.582;2023-05-07T14:05:57;3.63;;;3.33;;
20828;SDS011;10575;50.124;8.582;2023-05-07T14:08:24;3.30;;;3.00;;
20828;SDS011;10575;50.124;8.582;2023-05-07T14:10:50;4.13;;;3.72;;
20828;SDS011;10575;50.124;8.582;2023-05-07T14:13:16;4.30;;;3.70;;
20828;SDS011;10575;50.124;8.582;2023-05-07T14:15:42;4.03;;;3.63;;
20828;SDS011;10575;50.124;8.582;2023-05-07T14:18:11;3.85;;;3.35;;
20828;SDS011;10575;50.124;8.582;2023-05-07T14:20:37;4.20;;;3.80;;
20828;SDS011;10575;50.124;8.582;2023-05-07T14:23:02;6.97;;;3.97;;
20828;SDS011;10575;50.124;8.582;2023-05-07T14:25:28;7.18;;;4.72;;
20828;SDS011;10575;50.124;8.582;2023-05-07T14:27:53;39.72;;;21.90;;
20828;SDS011;10575;50.124;8.582;2023-05-07T14:30:19;53.40;;;27.98;;
20828;SDS011;10575;50.124;8.582;2023-05-07T14:32:44;30.42;;;15.43;;
20828;SDS011;10575;50.124;8.582;2023-05-07T14:35:10;22.48;;;12.80;;
20828;SDS011;10575;50.124;8.582;2023-05-07T14:37:35;75.05;;;34.22;;
20828;SDS011;10575;50.124;8.582;2023-05-07T14:40:01;78.38;;;40.00;;
20828;SDS011;10575;50.124;8.582;2023-05-07T14:42:27;47.42;;;26.27;;
20828;SDS011;10575;50.124;8.582;2023-05-07T14:44:52;36.95;;;22.80;;
20828;SDS011;10575;50.124;8.582;2023-05-07T14:47:18;29.52;;;21.50;;
20828;SDS011;10575;50.124;8.582;2023-05-07T14:49:43;10.38;;;8.80;;
20828;SDS011;10575;50.124;8.582;2023-05-07T14:52:09;10.77;;;7.65;;
20828;SDS011;10575;50.124;8.582;2023-05-07T14:54:35;7.00;;;6.03;;
20828;SDS011;10575;50.124;8.582;2023-05-07T14:57:02;7.20;;;5.03;;
20828;SDS011;10575;50.124;8.582;2023-05-07T14:59:27;5.72;;;4.35;;
20828;SDS011;10575;50.124;8.582;2023-05-07T15:01:53;4.88;;;3.95;;